createdAt,value
2018-12-23T00:00:31.685Z,21.20
2018-12-23T00:03:00.056Z,18.63
2018-12-23T00:05:27.704Z,14.73
2018-12-23T00:07:55.408Z,17.50
2018-12-23T00:10:23.080Z,16.97
2018-12-23T00:12:50.759Z,18.00
2018-12-23T00:15:18.409Z,18.33
2018-12-23T00:17:46.120Z,18.87
2018-12-23T00:20:13.759Z,19.80
2018-12-23T00:22:41.440Z,19.57
2018-12-23T00:25:09.092Z,17.80
2018-12-23T00:27:36.823Z,23.27
2018-12-23T00:30:06.131Z,18.70
2018-12-23T00:32:33.823Z,22.30
2018-12-23T00:35:01.479Z,19.17
2018-12-23T00:37:29.303Z,18.90
2018-12-23T00:39:57.259Z,18.10
2018-12-23T00:42:25.195Z,18.53
2018-12-23T00:44:53.240Z,18.97
2018-12-23T00:47:21.317Z,16.90
2018-12-23T00:49:49.409Z,15.70
2018-12-23T00:52:17.337Z,14.70
2018-12-23T00:54:45.327Z,14.43
2018-12-23T00:57:13.268Z,19.33
2018-12-23T00:59:41.234Z,17.77
2018-12-23T01:02:09.202Z,13.40
2018-12-23T01:04:37.222Z,15.37
2018-12-23T01:07:05.231Z,19.63
2018-12-23T01:09:33.365Z,15.90
2018-12-23T01:12:01.287Z,17.37
2018-12-23T01:14:29.304Z,17.70
2018-12-23T01:16:57.376Z,16.70
2018-12-23T01:19:25.051Z,17.90
2018-12-23T01:21:52.703Z,15.50
2018-12-23T01:24:20.494Z,14.90
2018-12-23T01:26:48.138Z,15.10
2018-12-23T01:29:15.847Z,15.17
2018-12-23T01:31:43.487Z,15.23
2018-12-23T01:34:11.213Z,18.17
2018-12-23T01:36:38.943Z,15.03
2018-12-23T01:39:06.646Z,16.20
2018-12-23T01:41:34.279Z,22.90
2018-12-23T01:44:01.983Z,16.97
2018-12-23T01:46:29.624Z,16.93
2018-12-23T01:48:57.404Z,17.77
2018-12-23T01:51:25.048Z,17.63
2018-12-23T01:53:52.755Z,18.47
2018-12-23T01:56:20.526Z,17.83
2018-12-23T01:58:48.392Z,16.87
2018-12-23T02:01:16.035Z,17.07
2018-12-23T02:03:43.704Z,18.57
2018-12-23T02:06:13.375Z,18.33
2018-12-23T02:08:41.196Z,15.80
2018-12-23T02:11:09.208Z,18.00
2018-12-23T02:13:37.277Z,15.80
2018-12-23T02:16:05.351Z,19.20
2018-12-23T02:18:33.358Z,18.50
2018-12-23T02:21:01.202Z,15.60
2018-12-23T02:23:29.214Z,16.73
2018-12-23T02:25:57.405Z,18.10
2018-12-23T02:28:25.503Z,16.97
2018-12-23T02:30:53.539Z,15.97
2018-12-23T02:33:21.657Z,16.27
2018-12-23T02:35:55.518Z,18.27
2018-12-23T02:38:19.406Z,18.13
2018-12-23T02:40:47.047Z,17.17
2018-12-23T02:43:14.706Z,17.17
2018-12-23T02:45:42.347Z,16.43
2018-12-23T02:48:10.036Z,18.47
2018-12-23T02:50:37.675Z,16.23
2018-12-23T02:53:05.375Z,18.07
2018-12-23T02:55:33.057Z,18.13
2018-12-23T02:58:00.705Z,16.10
2018-12-23T03:00:28.356Z,16.70
2018-12-23T03:02:56.027Z,17.40
2018-12-23T03:05:23.672Z,17.37
2018-12-23T03:07:51.333Z,18.10
2018-12-23T03:10:18.974Z,15.03
2018-12-23T03:12:46.651Z,16.67
2018-12-23T03:15:14.300Z,23.63
2018-12-23T03:17:42.157Z,23.70
2018-12-23T03:20:09.867Z,16.97
2018-12-23T03:22:37.897Z,18.73
2018-12-23T03:25:06.159Z,15.53
2018-12-23T03:27:34.274Z,18.23
2018-12-23T03:30:02.214Z,16.17
2018-12-23T03:32:30.247Z,14.20
2018-12-23T03:34:58.244Z,18.70
2018-12-23T03:37:26.359Z,16.53
2018-12-23T03:39:54.247Z,15.67
2018-12-23T03:42:22.487Z,15.87
2018-12-23T03:44:50.454Z,13.43
2018-12-23T03:47:18.663Z,15.50
2018-12-23T03:49:46.661Z,13.90
2018-12-23T03:52:14.579Z,14.87
2018-12-23T03:54:42.536Z,12.90
2018-12-23T03:57:10.546Z,11.90
2018-12-23T03:59:39.224Z,15.30
2018-12-23T04:02:07.262Z,13.67
2018-12-23T04:04:35.366Z,12.47
2018-12-23T04:07:03.094Z,12.73
2018-12-23T04:09:30.898Z,12.17
2018-12-23T04:11:58.825Z,15.37
2018-12-23T04:14:26.832Z,12.10
2018-12-23T04:16:54.904Z,13.23
2018-12-23T04:19:22.700Z,12.93
2018-12-23T04:21:50.373Z,13.20
2018-12-23T04:24:19.569Z,10.47
2018-12-23T04:26:47.376Z,12.70
2018-12-23T04:29:15.332Z,10.97
2018-12-23T04:31:42.986Z,11.20
2018-12-23T04:34:10.627Z,17.17
2018-12-23T04:36:38.288Z,12.27
2018-12-23T04:39:06.113Z,12.30
2018-12-23T04:41:34.162Z,12.40
2018-12-23T04:44:02.252Z,12.47
2018-12-23T04:46:30.327Z,13.33
2018-12-23T04:48:58.334Z,12.57
2018-12-23T04:51:27.122Z,12.97
2018-12-23T04:53:56.383Z,14.03
2018-12-23T04:56:24.382Z,14.67
2018-12-23T04:58:52.524Z,11.87
2018-12-23T05:01:20.565Z,11.67
2018-12-23T05:03:48.528Z,19.63
2018-12-23T05:06:17.909Z,13.83
2018-12-23T05:08:46.209Z,11.73
2018-12-23T05:11:14.175Z,13.70
2018-12-23T05:13:42.093Z,11.27
2018-12-23T05:16:09.771Z,15.30
2018-12-23T05:18:37.731Z,13.50
2018-12-23T05:21:05.423Z,14.53
2018-12-23T05:23:33.082Z,13.83
2018-12-23T05:26:00.743Z,17.37
2018-12-23T05:28:28.411Z,15.17
2018-12-23T05:30:56.095Z,11.60
2018-12-23T05:33:23.758Z,16.33
2018-12-23T05:35:51.407Z,14.20
2018-12-23T05:38:19.059Z,14.93
2018-12-23T05:40:46.705Z,14.93
2018-12-23T05:43:14.384Z,14.87
2018-12-23T05:45:42.021Z,12.23
2018-12-23T05:48:09.860Z,17.53
2018-12-23T05:50:37.901Z,12.80
2018-12-23T05:53:05.589Z,14.97
2018-12-23T05:55:32.778Z,13.23
2018-12-23T05:58:00.432Z,14.10
2018-12-23T06:00:28.087Z,12.10
2018-12-23T06:02:55.803Z,14.47
2018-12-23T06:05:23.447Z,15.33
2018-12-23T06:07:51.091Z,13.83
2018-12-23T06:10:18.731Z,12.30
2018-12-23T06:12:46.492Z,15.27
2018-12-23T06:15:14.337Z,15.40
2018-12-23T06:17:42.019Z,15.70
2018-12-23T06:20:09.672Z,14.43
2018-12-23T06:22:37.349Z,17.93
2018-12-23T06:25:05.072Z,16.67
2018-12-23T06:27:32.764Z,12.07
2018-12-23T06:30:00.404Z,18.30
2018-12-23T06:32:28.095Z,17.93
2018-12-23T06:34:55.840Z,13.93
2018-12-23T06:37:23.479Z,17.00
2018-12-23T06:39:51.168Z,16.60
2018-12-23T06:42:18.817Z,16.27
2018-12-23T06:44:46.526Z,15.63
2018-12-23T06:47:14.171Z,19.53
2018-12-23T06:49:41.849Z,12.87
2018-12-23T06:52:09.541Z,17.30
2018-12-23T06:54:37.232Z,19.63
2018-12-23T06:57:04.889Z,22.13
2018-12-23T06:59:32.607Z,28.10
2018-12-23T07:02:00.267Z,17.27
2018-12-23T07:04:27.991Z,27.10
2018-12-23T07:06:55.647Z,17.20
2018-12-23T07:09:23.488Z,25.87
2018-12-23T07:11:51.187Z,20.40
2018-12-23T07:14:19.298Z,20.10
2018-12-23T07:16:47.151Z,29.57
2018-12-23T07:19:14.999Z,17.50
2018-12-23T07:21:42.659Z,29.20
2018-12-23T07:24:10.359Z,18.13
2018-12-23T07:26:38.023Z,21.10
2018-12-23T07:29:05.957Z,25.20
2018-12-23T07:31:33.598Z,21.67
2018-12-23T07:34:01.283Z,49.80
2018-12-23T07:36:29.067Z,23.60
2018-12-23T07:38:56.784Z,34.27
2018-12-23T07:41:24.471Z,18.97
2018-12-23T07:43:52.129Z,29.83
2018-12-23T07:46:19.803Z,28.33
2018-12-23T07:48:47.462Z,17.47
2018-12-23T07:51:15.363Z,15.97
2018-12-23T07:53:43.179Z,15.57
2018-12-23T07:56:10.832Z,15.67
2018-12-23T07:58:38.833Z,18.13
2018-12-23T08:01:06.543Z,15.23
2018-12-23T08:03:34.287Z,12.53
2018-12-23T08:06:02.206Z,12.07
2018-12-23T08:08:30.014Z,11.90
2018-12-23T08:10:57.660Z,11.63
2018-12-23T08:13:26.476Z,13.13
2018-12-23T08:15:54.412Z,10.00
2018-12-23T08:18:22.958Z,23.40
2018-12-23T08:20:50.615Z,10.57
2018-12-23T08:23:18.292Z,14.20
2018-12-23T08:25:45.957Z,13.77
2018-12-23T08:28:13.664Z,10.77
2018-12-23T08:30:41.329Z,8.77
2018-12-23T08:33:09.041Z,10.63
2018-12-23T08:35:36.699Z,8.90
2018-12-23T08:38:04.360Z,9.10
2018-12-23T08:40:32.111Z,7.13
2018-12-23T08:42:59.815Z,8.87
2018-12-23T08:45:27.535Z,10.83
2018-12-23T08:47:55.243Z,12.90
2018-12-23T08:50:22.939Z,8.20
2018-12-23T08:52:50.607Z,13.23
2018-12-23T08:55:18.323Z,7.53
2018-12-23T08:57:46.011Z,7.73
2018-12-23T09:00:13.660Z,10.60
2018-12-23T09:02:41.397Z,12.97
2018-12-23T09:05:09.059Z,9.80
2018-12-23T09:07:36.777Z,10.97
2018-12-23T09:10:05.289Z,8.17
2018-12-23T09:12:32.987Z,8.40
2018-12-23T09:15:00.607Z,9.27
2018-12-23T09:17:28.301Z,11.33
2018-12-23T09:19:56.130Z,12.43
2018-12-23T09:22:23.795Z,11.10
2018-12-23T09:24:51.467Z,11.40
2018-12-23T09:27:19.127Z,10.40
2018-12-23T09:29:46.808Z,13.03
2018-12-23T09:32:14.597Z,13.40
2018-12-23T09:34:42.283Z,9.83
2018-12-23T09:37:10.276Z,11.83
2018-12-23T09:39:38.144Z,16.23
2018-12-23T09:42:05.826Z,10.40
2018-12-23T09:44:33.559Z,7.67
2018-12-23T09:47:01.220Z,9.00
2018-12-23T09:49:28.913Z,9.07
2018-12-23T09:51:56.552Z,7.53
2018-12-23T09:54:24.303Z,11.20
2018-12-23T09:56:53.177Z,9.47
2018-12-23T09:59:21.095Z,11.17
2018-12-23T10:01:48.783Z,11.17
2018-12-23T10:04:16.483Z,7.63
2018-12-23T10:06:44.147Z,14.97
2018-12-23T10:09:11.865Z,14.10
2018-12-23T10:11:39.497Z,8.40
2018-12-23T10:14:07.218Z,15.83
2018-12-23T10:16:35.088Z,14.13
2018-12-23T10:19:03.108Z,6.93
2018-12-23T10:21:31.020Z,13.67
2018-12-23T10:23:59.128Z,6.77
2018-12-23T10:26:26.908Z,9.00
2018-12-23T10:28:54.635Z,11.03
2018-12-23T10:31:22.723Z,10.63
2018-12-23T10:33:50.484Z,13.90
2018-12-23T10:36:18.138Z,10.20
2018-12-23T10:38:45.856Z,8.93
2018-12-23T10:41:13.574Z,11.50
2018-12-23T10:43:41.609Z,7.73
2018-12-23T10:46:09.457Z,12.43
2018-12-23T10:48:37.147Z,5.83
2018-12-23T10:51:04.787Z,11.83
2018-12-23T10:53:33.399Z,9.60
2018-12-23T10:56:01.064Z,10.57
2018-12-23T10:58:28.719Z,10.47
2018-12-23T11:00:56.403Z,11.00
2018-12-23T11:03:24.147Z,7.13
2018-12-23T11:05:51.900Z,11.07
2018-12-23T11:08:26.748Z,8.63
2018-12-23T11:10:49.292Z,11.90
2018-12-23T11:13:17.072Z,11.03
2018-12-23T11:15:44.792Z,10.67
2018-12-23T11:18:12.652Z,14.03
2018-12-23T11:20:40.643Z,12.53
2018-12-23T11:23:08.315Z,8.00
2018-12-23T11:25:35.989Z,13.27
2018-12-23T11:28:03.916Z,12.03
2018-12-23T11:30:31.722Z,11.00
2018-12-23T11:32:59.482Z,10.13
2018-12-23T11:35:27.406Z,18.33
2018-12-23T11:37:55.128Z,11.60
2018-12-23T11:40:22.758Z,10.97
2018-12-23T11:42:50.732Z,9.63
2018-12-23T11:45:18.573Z,14.30
2018-12-23T11:47:46.582Z,6.73
2018-12-23T11:50:14.578Z,12.53
2018-12-23T11:52:42.638Z,10.77
2018-12-23T11:55:10.710Z,11.60
2018-12-23T11:57:38.776Z,13.17
2018-12-23T12:00:06.939Z,13.40
2018-12-23T12:02:34.748Z,14.83
2018-12-23T12:05:02.419Z,16.43
2018-12-23T12:07:30.224Z,14.83
2018-12-23T12:09:57.935Z,10.70
2018-12-23T12:12:25.609Z,14.33
2018-12-23T12:14:53.271Z,13.47
2018-12-23T12:17:21.010Z,11.07
2018-12-23T12:19:48.703Z,18.20
2018-12-23T12:22:16.373Z,18.73
2018-12-23T12:24:44.021Z,17.87
2018-12-23T12:27:11.720Z,15.93
2018-12-23T12:29:39.603Z,8.87
2018-12-23T12:32:08.067Z,13.67
2018-12-23T12:34:35.836Z,13.60
2018-12-23T12:37:03.535Z,16.40
2018-12-23T12:39:31.398Z,17.13
2018-12-23T12:41:59.313Z,16.20
2018-12-23T12:44:26.963Z,15.63
2018-12-23T12:46:54.774Z,11.40
2018-12-23T12:49:22.536Z,8.80
2018-12-23T12:51:50.232Z,10.17
2018-12-23T12:54:17.954Z,12.03
2018-12-23T12:56:46.025Z,12.73
2018-12-23T12:59:13.866Z,6.37
2018-12-23T13:01:41.587Z,9.77
2018-12-23T13:04:09.242Z,11.90
2018-12-23T13:06:36.964Z,8.37
2018-12-23T13:09:05.893Z,14.13
2018-12-23T13:11:33.656Z,11.50
2018-12-23T13:14:01.451Z,16.40
2018-12-23T13:16:29.220Z,16.93
2018-12-23T13:18:56.880Z,16.07
2018-12-23T13:21:24.547Z,14.33
2018-12-23T13:23:52.370Z,21.77
2018-12-23T13:26:20.067Z,18.70
2018-12-23T13:28:47.779Z,21.73
2018-12-23T13:31:15.447Z,15.50
2018-12-23T13:33:43.128Z,15.87
2018-12-23T13:36:10.787Z,25.43
2018-12-23T13:38:38.523Z,17.67
2018-12-23T13:41:10.555Z,16.33
2018-12-23T13:43:45.168Z,13.73
2018-12-23T13:46:20.967Z,22.33
2018-12-23T14:05:09.613Z,24.87
2018-12-23T14:08:17.209Z,32.53
2018-12-23T14:13:47.346Z,25.90
2018-12-23T14:16:16.135Z,21.63
2018-12-23T14:18:44.968Z,22.97
2018-12-23T14:21:13.770Z,23.70
2018-12-23T14:23:42.596Z,24.97
2018-12-23T14:26:11.389Z,29.70
2018-12-23T14:28:40.250Z,20.80
2018-12-23T14:31:09.037Z,22.50
2018-12-23T14:33:37.918Z,15.30
2018-12-23T14:36:06.711Z,15.23
2018-12-23T14:38:35.866Z,7.87
2018-12-23T14:41:04.728Z,5.20
2018-12-23T14:43:33.600Z,3.23
2018-12-23T14:46:02.378Z,4.50
2018-12-23T14:48:31.237Z,6.77
2018-12-23T14:51:00.013Z,5.13
2018-12-23T14:53:28.895Z,8.00
2018-12-23T14:55:57.674Z,8.27
2018-12-23T14:58:26.604Z,11.47
2018-12-23T15:00:55.375Z,12.43
2018-12-23T15:03:24.254Z,15.40
2018-12-23T15:05:53.037Z,12.30
2018-12-23T15:08:21.871Z,12.00
2018-12-23T15:10:50.669Z,12.63
2018-12-23T15:13:19.528Z,17.73
2018-12-23T15:15:48.310Z,24.40
2018-12-23T15:18:17.162Z,28.67
2018-12-23T15:20:45.955Z,24.10
2018-12-23T15:23:14.935Z,28.07
2018-12-23T15:25:43.719Z,28.13
2018-12-23T15:28:12.665Z,19.67
2018-12-23T15:30:41.445Z,24.23
2018-12-23T15:33:10.286Z,27.87
2018-12-23T15:35:39.136Z,18.70
2018-12-23T15:38:08.009Z,13.50
2018-12-23T15:40:36.793Z,15.13
2018-12-23T15:43:05.683Z,14.77
2018-12-23T15:45:34.464Z,13.10
2018-12-23T15:48:03.335Z,12.03
2018-12-23T15:50:32.138Z,13.20
2018-12-23T15:53:00.995Z,10.73
2018-12-23T15:55:29.786Z,7.57
2018-12-23T15:57:58.640Z,13.47
2018-12-23T16:00:27.439Z,10.13
2018-12-23T16:02:56.282Z,8.93
2018-12-23T16:05:25.066Z,13.80
2018-12-23T16:07:53.964Z,9.57
2018-12-23T16:10:22.778Z,8.17
2018-12-23T16:12:51.609Z,9.40
2018-12-23T16:15:20.460Z,10.97
2018-12-23T16:17:49.280Z,10.80
2018-12-23T16:20:18.125Z,13.30
2018-12-23T16:22:46.915Z,16.30
2018-12-23T16:25:15.739Z,14.57
2018-12-23T16:27:44.635Z,12.57
2018-12-23T16:30:18.310Z,12.60
2018-12-23T16:32:47.156Z,18.30
2018-12-23T16:35:15.935Z,15.27
2018-12-23T16:37:44.808Z,20.57
2018-12-23T16:40:13.663Z,14.50
2018-12-23T16:42:42.529Z,18.20
2018-12-23T16:45:11.339Z,19.00
2018-12-23T16:47:40.160Z,20.07
2018-12-23T16:50:10.792Z,18.60
2018-12-23T16:52:39.646Z,17.40
2018-12-23T16:55:27.236Z,20.87
2018-12-23T16:57:56.064Z,18.30
2018-12-23T17:00:24.931Z,22.40
2018-12-23T17:02:53.777Z,18.67
2018-12-23T17:05:22.596Z,20.10
2018-12-23T17:07:51.409Z,28.60
2018-12-23T17:10:20.207Z,19.37
2018-12-23T17:12:49.005Z,16.80
2018-12-23T17:15:17.830Z,24.70
2018-12-23T17:17:46.684Z,16.00
2018-12-23T17:20:15.521Z,16.57
2018-12-23T17:22:44.345Z,20.27
2018-12-23T17:25:13.286Z,24.57
2018-12-23T17:27:42.134Z,14.10
2018-12-23T17:30:11.012Z,16.63
2018-12-23T17:32:39.851Z,31.03
2018-12-23T17:35:08.684Z,16.83
2018-12-23T17:37:37.506Z,23.30
2018-12-23T17:40:46.342Z,24.73
2018-12-23T17:43:15.214Z,21.87
2018-12-23T17:45:44.038Z,20.17
2018-12-23T17:48:12.891Z,19.87
2018-12-23T17:50:41.699Z,25.80
2018-12-23T17:53:15.374Z,18.10
2018-12-23T17:55:44.256Z,22.10
2018-12-23T17:58:13.079Z,23.50
2018-12-23T18:00:41.920Z,23.00
